Time;durP1;ratioP1;P1;durP2;ratioP2;P2;SDS_P1;SDS_P2;PMS_P1;PMS_P2;Temp;Humidity;BMP_temperature;BMP_pressure;BME280_temperature;BME280_humidity;BME280_pressure;Samples;Min_cycle;Max_cycle;Signal;HPM_P1;HPM_P2
2023/10/20 00:01:10;;;;;;;7.27;3.77;;;;;;;;;;5029761;28;20242;-85
2023/10/20 00:03:40;;;;;;;3.37;2.87;;;;;;;;;;5029122;28;20250;-85
2023/10/20 00:06:09;;;;;;;4.23;3.83;;;;;;;;;;5028024;28;20225;-84
2023/10/20 00:08:39;;;;;;;6.60;4.40;;;;;;;;;;5028539;28;20256;-86
2023/10/20 00:11:07;;;;;;;7.30;3.63;;;;;;;;;;5029249;28;20220;-86
2023/10/20 00:13:34;;;;;;;7.20;3.50;;;;;;;;;;5027403;28;20642;-85
2023/10/20 00:16:09;;;;;;;8.00;4.10;;;;;;;;;;5029413;28;20305;-85
2023/10/20 00:18:44;;;;;;;5.63;3.87;;;;;;;;;;5028968;28;20246;-86
2023/10/20 00:21:18;;;;;;;4.10;3.80;;;;;;;;;;5031982;28;20234;-86
2023/10/20 00:23:49;;;;;;;6.30;3.97;;;;;;;;;;5047924;28;20442;-86
2023/10/20 00:26:20;;;;;;;6.00;5.13;;;;;;;;;;5045673;28;20224;-85
2023/10/20 00:28:51;;;;;;;4.17;3.77;;;;;;;;;;5029920;28;20318;-86
2023/10/20 00:31:26;;;;;;;5.37;3.83;;;;;;;;;;5030345;28;20591;-85
2023/10/20 00:33:53;;;;;;;6.13;4.97;;;;;;;;;;5030917;28;20646;-86
2023/10/20 00:36:23;;;;;;;5.27;4.00;;;;;;;;;;5030604;28;20236;-84
2023/10/20 00:38:51;;;;;;;5.10;3.63;;;;;;;;;;5031511;28;20204;-84
2023/10/20 00:41:23;;;;;;;3.20;2.93;;;;;;;;;;5033992;28;20204;-85
2023/10/20 00:43:53;;;;;;;8.87;4.37;;;;;;;;;;5033965;28;20255;-85
2023/10/20 00:46:24;;;;;;;6.67;4.07;;;;;;;;;;5033582;28;20197;-85
2023/10/20 00:48:51;;;;;;;3.77;3.47;;;;;;;;;;5034085;28;20690;-86
2023/10/20 00:51:21;;;;;;;5.93;4.00;;;;;;;;;;5034074;28;20197;-86
2023/10/20 00:53:49;;;;;;;3.50;3.20;;;;;;;;;;5033776;28;20196;-86
2023/10/20 00:56:21;;;;;;;4.23;3.40;;;;;;;;;;5034404;28;20215;-85
2023/10/20 00:58:49;;;;;;;7.30;3.97;;;;;;;;;;5033549;28;20682;-85
2023/10/20 01:01:19;;;;;;;7.73;4.23;;;;;;;;;;5034343;28;20585;-86
2023/10/20 01:03:50;;;;;;;6.07;4.80;;;;;;;;;;5033871;28;20276;-85
2023/10/20 01:06:19;;;;;;;7.67;3.70;;;;;;;;;;5033739;28;20248;-85
2023/10/20 01:08:47;;;;;;;3.97;3.53;;;;;;;;;;5033958;28;20225;-85
2023/10/20 01:11:26;;;;;;;4.20;3.80;;;;;;;;;;5034038;28;20212;-85
2023/10/20 01:13:53;;;;;;;4.53;3.57;;;;;;;;;;5033823;28;20586;-85
2023/10/20 01:16:27;;;;;;;6.10;3.90;;;;;;;;;;5032913;28;20245;-85
2023/10/20 01:19:00;;;;;;;6.87;4.17;;;;;;;;;;5034095;28;20207;-86
2023/10/20 01:21:29;;;;;;;5.17;3.70;;;;;;;;;;5035172;28;20358;-85
2023/10/20 01:24:02;;;;;;;4.87;4.30;;;;;;;;;;5038287;28;20225;-85
2023/10/20 01:26:32;;;;;;;6.20;3.60;;;;;;;;;;5049942;28;20193;-86
2023/10/20 01:29:05;;;;;;;3.57;3.27;;;;;;;;;;5051848;28;20733;-85
2023/10/20 01:31:34;;;;;;;5.37;3.60;;;;;;;;;;5049912;28;20205;-85
2023/10/20 01:34:03;;;;;;;4.00;3.60;;;;;;;;;;5050423;28;20200;-86
2023/10/20 01:36:33;;;;;;;3.33;3.00;;;;;;;;;;5054595;28;20212;-85
2023/10/20 01:39:05;;;;;;;4.23;3.17;;;;;;;;;;5058260;28;20195;-85
2023/10/20 01:41:34;;;;;;;5.93;3.80;;;;;;;;;;5057014;28;20204;-85
2023/10/20 01:44:04;;;;;;;4.43;3.20;;;;;;;;;;5058395;28;20271;-86
2023/10/20 01:46:33;;;;;;;5.97;3.40;;;;;;;;;;5058130;28;20188;-86
2023/10/20 01:49:06;;;;;;;7.57;3.77;;;;;;;;;;5058606;28;20185;-86
2023/10/20 01:51:34;;;;;;;5.43;3.10;;;;;;;;;;5057469;28;20201;-86
2023/10/20 01:54:08;;;;;;;3.83;3.30;;;;;;;;;;5039606;28;20211;-86
2023/10/20 01:56:35;;;;;;;5.97;3.60;;;;;;;;;;5040816;28;20208;-85
2023/10/20 01:59:04;;;;;;;4.77;3.67;;;;;;;;;;5034150;28;20738;-84
2023/10/20 02:01:33;;;;;;;3.50;3.23;;;;;;;;;;5034874;28;20212;-85
2023/10/20 02:04:01;;;;;;;5.00;4.43;;;;;;;;;;5033494;28;20277;-86
2023/10/20 02:06:29;;;;;;;5.03;3.50;;;;;;;;;;5033445;28;20204;-85
2023/10/20 02:08:58;;;;;;;3.10;2.67;;;;;;;;;;5033492;28;20196;-86
2023/10/20 02:11:27;;;;;;;5.80;4.03;;;;;;;;;;5032829;28;20279;-85
2023/10/20 02:13:57;;;;;;;4.63;4.20;;;;;;;;;;5032855;28;20693;-86
2023/10/20 02:16:26;;;;;;;10.83;3.80;;;;;;;;;;5032717;28;20242;-85
2023/10/20 02:18:55;;;;;;;4.20;3.77;;;;;;;;;;5033567;28;20204;-85
2023/10/20 02:21:25;;;;;;;6.03;4.60;;;;;;;;;;5032279;28;20665;-87
2023/10/20 02:23:53;;;;;;;4.60;4.00;;;;;;;;;;5033849;28;20224;-86
2023/10/20 02:26:21;;;;;;;3.60;3.30;;;;;;;;;;5032573;28;20195;-86
2023/10/20 02:28:51;;;;;;;5.00;3.60;;;;;;;;;;5032264;28;20200;-86
2023/10/20 02:31:19;;;;;;;4.23;3.93;;;;;;;;;;5032735;28;20234;-86
2023/10/20 02:33:52;;;;;;;5.63;3.80;;;;;;;;;;5033372;28;20200;-86
2023/10/20 02:36:20;;;;;;;4.77;3.60;;;;;;;;;;5032538;28;20704;-86
2023/10/20 02:38:48;;;;;;;5.43;3.37;;;;;;;;;;5032351;28;20196;-86
2023/10/20 02:41:19;;;;;;;4.70;3.50;;;;;;;;;;5032094;28;20196;-86
2023/10/20 02:43:47;;;;;;;4.57;3.93;;;;;;;;;;5032590;28;20396;-86
2023/10/20 02:46:17;;;;;;;4.03;3.63;;;;;;;;;;5032611;28;20192;-86
2023/10/20 02:48:43;;;;;;;5.80;5.30;;;;;;;;;;5032124;28;20290;-86
2023/10/20 02:51:11;;;;;;;6.03;4.60;;;;;;;;;;5032745;28;20231;-85
2023/10/20 02:53:47;;;;;;;6.53;3.20;;;;;;;;;;5031934;28;20235;-86
2023/10/20 02:56:14;;;;;;;9.53;4.23;;;;;;;;;;5032918;28;20206;-85
2023/10/20 02:58:44;;;;;;;6.23;3.67;;;;;;;;;;5031834;28;20250;-85
2023/10/20 03:01:14;;;;;;;7.43;3.53;;;;;;;;;;5031888;28;20197;-86
2023/10/20 03:03:46;;;;;;;9.00;4.43;;;;;;;;;;5030687;28;20227;-85
2023/10/20 03:06:16;;;;;;;5.10;4.07;;;;;;;;;;5032094;28;20227;-85
2023/10/20 03:08:51;;;;;;;3.27;3.07;;;;;;;;;;5031774;28;20198;-85
2023/10/20 03:11:19;;;;;;;3.00;2.57;;;;;;;;;;5031511;28;20203;-85
2023/10/20 03:13:48;;;;;;;4.47;3.73;;;;;;;;;;5031276;28;20567;-85
2023/10/20 03:16:16;;;;;;;5.60;3.87;;;;;;;;;;5031406;28;20244;-85
2023/10/20 03:18:45;;;;;;;6.70;4.13;;;;;;;;;;5031569;28;20200;-84
2023/10/20 03:21:14;;;;;;;6.00;4.47;;;;;;;;;;5031584;28;20594;-85
2023/10/20 03:23:44;;;;;;;5.73;4.13;;;;;;;;;;5031063;28;20231;-86
2023/10/20 03:26:20;;;;;;;4.93;4.03;;;;;;;;;;5030087;28;20243;-85
2023/10/20 03:28:49;;;;;;;5.73;3.60;;;;;;;;;;5030926;28;20192;-85
2023/10/20 03:31:17;;;;;;;4.63;4.17;;;;;;;;;;5033130;28;20563;-85
2023/10/20 03:33:50;;;;;;;5.60;3.43;;;;;;;;;;5031349;28;20235;-85
2023/10/20 03:36:19;;;;;;;5.50;3.17;;;;;;;;;;5032631;28;20595;-85
2023/10/20 03:38:46;;;;;;;5.33;3.83;;;;;;;;;;5030956;28;20195;-85
2023/10/20 03:41:14;;;;;;;3.47;3.27;;;;;;;;;;5030452;28;20208;-85
2023/10/20 03:43:44;;;;;;;4.07;3.00;;;;;;;;;;5032746;28;20766;-86
2023/10/20 03:46:13;;;;;;;4.47;3.47;;;;;;;;;;5033731;28;20196;-86
2023/10/20 03:51:28;;;;;;;6.60;3.47;;;;;;;;;;5030332;28;20577;-83
2023/10/20 03:53:57;;;;;;;3.70;3.43;;;;;;;;;;5030849;28;20204;-84
2023/10/20 03:56:26;;;;;;;4.47;3.77;;;;;;;;;;5031101;28;20231;-83
2023/10/20 03:58:54;;;;;;;4.23;3.43;;;;;;;;;;5030916;28;20203;-86
2023/10/20 04:01:25;;;;;;;5.23;3.67;;;;;;;;;;5031037;28;20196;-86
2023/10/20 04:03:53;;;;;;;3.93;3.60;;;;;;;;;;5030525;28;20216;-85
2023/10/20 04:06:22;;;;;;;5.53;2.93;;;;;;;;;;5030618;28;20285;-85
2023/10/20 04:08:55;;;;;;;4.63;3.53;;;;;;;;;;5032565;28;20207;-85
2023/10/20 04:11:23;;;;;;;7.27;4.00;;;;;;;;;;5033379;28;20203;-85
2023/10/20 04:13:51;;;;;;;5.93;3.37;;;;;;;;;;5043911;28;20259;-86
2023/10/20 04:16:18;;;;;;;4.80;3.60;;;;;;;;;;5049856;28;20300;-85
2023/10/20 04:18:46;;;;;;;3.53;3.17;;;;;;;;;;5039815;28;20196;-85
2023/10/20 04:21:15;;;;;;;4.03;3.67;;;;;;;;;;5037356;28;20196;-85
2023/10/20 04:23:44;;;;;;;4.57;3.37;;;;;;;;;;5055174;28;20218;-86
2023/10/20 04:26:20;;;;;;;3.80;3.50;;;;;;;;;;5057588;28;20207;-86
2023/10/20 04:29:02;;;;;;;4.43;4.03;;;;;;;;;;5057394;28;20234;-85
2023/10/20 04:43:14;;;;;;;15.23;6.87;;;;;;;;;;5034873;28;20187;-85
2023/10/20 04:51:17;;;;;;;5.03;4.27;;;;;;;;;;5039007;28;20575;-85
2023/10/20 04:53:52;;;;;;;9.83;4.73;;;;;;;;;;5038298;28;20206;-85
2023/10/20 04:56:53;;;;;;;4.73;4.33;;;;;;;;;;5034519;28;20261;-85
2023/10/20 04:59:24;;;;;;;6.47;4.80;;;;;;;;;;5034163;28;20201;-85
2023/10/20 05:01:59;;;;;;;6.97;4.83;;;;;;;;;;5034426;28;20314;-85
2023/10/20 05:04:36;;;;;;;6.80;4.47;;;;;;;;;;5035862;28;20255;-86
2023/10/20 05:07:05;;;;;;;11.53;6.00;;;;;;;;;;5046383;28;20222;-87
2023/10/20 05:09:33;;;;;;;12.43;5.70;;;;;;;;;;5042599;28;20349;-86
2023/10/20 05:12:02;;;;;;;8.53;4.27;;;;;;;;;;5036557;28;20223;-85
2023/10/20 05:14:39;;;;;;;8.10;5.27;;;;;;;;;;5036774;28;20735;-85
2023/10/20 05:17:10;;;;;;;10.47;5.33;;;;;;;;;;5035940;28;20237;-85
2023/10/20 05:19:39;;;;;;;13.60;5.83;;;;;;;;;;5034463;28;20206;-84
2023/10/20 05:22:09;;;;;;;12.83;6.80;;;;;;;;;;5034875;28;20204;-85
2023/10/20 05:24:38;;;;;;;11.87;6.53;;;;;;;;;;5035536;28;20227;-84
2023/10/20 05:27:08;;;;;;;10.03;6.23;;;;;;;;;;5035021;28;20251;-84
2023/10/20 05:29:38;;;;;;;10.93;5.70;;;;;;;;;;5035275;28;20285;-85
2023/10/20 05:32:07;;;;;;;10.17;5.70;;;;;;;;;;5035164;28;20234;-85
2023/10/20 05:34:35;;;;;;;10.10;7.17;;;;;;;;;;5037845;28;20279;-83
2023/10/20 05:37:04;;;;;;;9.13;6.38;;;;;;;;;;5038319;28;20209;-83
2023/10/20 05:39:40;;;;;;;18.65;6.00;;;;;;;;;;5040872;28;20274;-84
2023/10/20 05:42:09;;;;;;;10.27;6.22;;;;;;;;;;5039985;28;20642;-85
2023/10/20 05:44:48;;;;;;;11.43;6.20;;;;;;;;;;5038454;28;20700;-86
2023/10/20 05:47:20;;;;;;;13.68;6.78;;;;;;;;;;5038880;28;20198;-84
2023/10/20 05:49:49;;;;;;;7.20;6.45;;;;;;;;;;5034800;28;20766;-83
2023/10/20 05:52:23;;;;;;;12.18;7.35;;;;;;;;;;5036910;28;20202;-84
2023/10/20 05:54:55;;;;;;;15.18;7.10;;;;;;;;;;5042227;28;20198;-84
2023/10/20 05:57:26;;;;;;;10.50;6.90;;;;;;;;;;5041861;28;20219;-82
2023/10/20 05:59:59;;;;;;;8.90;7.20;;;;;;;;;;5036096;28;20287;-84
2023/10/20 06:02:27;;;;;;;7.78;6.40;;;;;;;;;;5033851;28;20223;-83
2023/10/20 06:05:02;;;;;;;15.60;7.28;;;;;;;;;;5034387;28;20228;-85
2023/10/20 06:07:36;;;;;;;7.90;5.70;;;;;;;;;;5033893;28;20214;-84
2023/10/20 06:10:05;;;;;;;8.35;6.25;;;;;;;;;;5035896;28;20592;-85
2023/10/20 06:12:33;;;;;;;9.18;5.93;;;;;;;;;;5035393;28;20204;-85
2023/10/20 06:15:07;;;;;;;11.80;6.90;;;;;;;;;;5034847;28;20230;-84
2023/10/20 06:17:38;;;;;;;9.07;6.88;;;;;;;;;;5037104;28;20738;-84
2023/10/20 06:20:10;;;;;;;6.82;5.68;;;;;;;;;;5033844;28;20728;-85
2023/10/20 06:22:40;;;;;;;11.38;6.40;;;;;;;;;;5036400;28;20689;-86
2023/10/20 06:25:12;;;;;;;13.52;8.93;;;;;;;;;;5033665;28;20318;-85
2023/10/20 06:27:42;;;;;;;12.00;6.63;;;;;;;;;;5034035;28;20577;-85
2023/10/20 06:30:22;;;;;;;8.23;7.15;;;;;;;;;;5033592;28;20204;-85
2023/10/20 06:33:13;;;;;;;11.95;6.68;;;;;;;;;;5032242;28;20641;-85
2023/10/20 06:35:50;;;;;;;9.00;6.30;;;;;;;;;;5031840;28;20204;-85
2023/10/20 06:38:19;;;;;;;7.43;6.20;;;;;;;;;;5030854;28;20199;-85
2023/10/20 06:40:48;;;;;;;10.27;7.15;;;;;;;;;;5031715;28;20192;-85
2023/10/20 06:43:23;;;;;;;10.05;6.75;;;;;;;;;;5014073;28;20207;-85
2023/10/20 06:46:00;;;;;;;9.00;6.65;;;;;;;;;;5031868;28;20767;-85
2023/10/20 06:48:31;;;;;;;8.75;7.32;;;;;;;;;;5034218;28;20210;-84
2023/10/20 06:51:02;;;;;;;9.93;6.80;;;;;;;;;;5039291;28;20211;-85
2023/10/20 06:53:31;;;;;;;6.82;6.18;;;;;;;;;;5031621;28;20661;-85
2023/10/20 06:56:05;;;;;;;7.80;6.05;;;;;;;;;;5031960;28;20208;-84
2023/10/20 06:58:35;;;;;;;7.55;6.22;;;;;;;;;;5025415;28;20207;-84
2023/10/20 07:01:13;;;;;;;7.70;6.20;;;;;;;;;;5022774;28;20614;-84
2023/10/20 07:03:46;;;;;;;6.68;5.97;;;;;;;;;;5020611;28;20200;-85
2023/10/20 07:06:17;;;;;;;6.35;5.75;;;;;;;;;;5031648;28;20219;-85
2023/10/20 07:08:48;;;;;;;6.80;6.03;;;;;;;;;;5031489;28;20708;-84
2023/10/20 07:11:15;;;;;;;6.78;5.45;;;;;;;;;;5032293;28;20210;-84
2023/10/20 07:13:44;;;;;;;5.93;5.43;;;;;;;;;;5031842;28;20204;-85
2023/10/20 07:16:15;;;;;;;4.05;3.70;;;;;;;;;;5040123;28;20235;-86
2023/10/20 07:18:47;;;;;;;4.57;4.28;;;;;;;;;;5043515;28;20322;-86
2023/10/20 07:21:16;;;;;;;3.83;3.53;;;;;;;;;;5055312;28;20199;-84
2023/10/20 07:23:48;;;;;;;4.70;3.42;;;;;;;;;;5044055;28;20258;-85
2023/10/20 07:26:18;;;;;;;8.50;4.00;;;;;;;;;;5019894;28;20486;-85
2023/10/20 07:28:45;;;;;;;8.27;4.63;;;;;;;;;;5032052;28;20207;-84
2023/10/20 07:31:15;;;;;;;6.35;4.22;;;;;;;;;;5030842;28;20204;-84
2023/10/20 07:33:46;;;;;;;5.50;4.40;;;;;;;;;;5031293;28;20207;-83
2023/10/20 07:36:15;;;;;;;8.05;4.13;;;;;;;;;;5031915;28;20192;-83
2023/10/20 07:38:44;;;;;;;5.30;4.43;;;;;;;;;;5031277;28;20682;-84
2023/10/20 07:41:13;;;;;;;4.53;3.97;;;;;;;;;;5031135;28;20668;-84
2023/10/20 07:43:46;;;;;;;7.68;4.45;;;;;;;;;;5030825;28;20310;-84
2023/10/20 07:46:21;;;;;;;5.22;4.72;;;;;;;;;;5031790;28;20714;-84
2023/10/20 07:48:54;;;;;;;12.02;4.88;;;;;;;;;;5031201;28;20685;-84
2023/10/20 07:51:25;;;;;;;5.03;4.63;;;;;;;;;;5032924;28;20210;-85
2023/10/20 07:53:53;;;;;;;5.70;4.75;;;;;;;;;;5034764;28;20200;-86
2023/10/20 07:56:25;;;;;;;6.53;5.60;;;;;;;;;;5033596;28;20250;-85
2023/10/20 07:59:24;;;;;;;9.95;5.57;;;;;;;;;;5035519;28;20228;-86
2023/10/20 08:01:59;;;;;;;6.55;4.78;;;;;;;;;;5025290;28;20230;-86
2023/10/20 08:04:29;;;;;;;4.55;3.92;;;;;;;;;;5041534;28;20227;-86
2023/10/20 08:06:59;;;;;;;4.45;4.10;;;;;;;;;;5045612;28;20224;-87
2023/10/20 08:09:27;;;;;;;6.40;4.50;;;;;;;;;;5027346;28;20657;-85
2023/10/20 08:11:58;;;;;;;8.50;4.80;;;;;;;;;;5032960;28;20291;-85
2023/10/20 08:14:26;;;;;;;4.00;3.70;;;;;;;;;;5032324;28;20220;-86
2023/10/20 08:16:56;;;;;;;5.13;4.35;;;;;;;;;;5034848;28;20239;-86
2023/10/20 08:19:27;;;;;;;6.45;4.57;;;;;;;;;;5032809;28;20284;-85
2023/10/20 08:21:59;;;;;;;8.20;4.53;;;;;;;;;;5032616;28;20282;-84
2023/10/20 08:24:33;;;;;;;5.72;4.25;;;;;;;;;;5027959;28;20716;-85
2023/10/20 08:27:05;;;;;;;4.30;3.90;;;;;;;;;;5033972;28;20228;-85
2023/10/20 08:29:36;;;;;;;6.53;4.55;;;;;;;;;;5030774;28;20278;-87
2023/10/20 08:32:06;;;;;;;10.02;4.28;;;;;;;;;;5039862;28;20220;-87
2023/10/20 08:34:40;;;;;;;5.07;4.45;;;;;;;;;;5034620;28;20283;-85
2023/10/20 08:37:11;;;;;;;7.68;4.65;;;;;;;;;;5033918;28;20219;-85
2023/10/20 08:39:40;;;;;;;10.63;4.70;;;;;;;;;;5033367;28;20220;-86
2023/10/20 08:42:16;;;;;;;6.38;5.22;;;;;;;;;;5033056;28;20232;-85
2023/10/20 08:44:44;;;;;;;6.82;5.22;;;;;;;;;;5028895;28;20224;-85
2023/10/20 08:47:15;;;;;;;5.40;4.88;;;;;;;;;;5032607;28;20246;-85
2023/10/20 08:49:47;;;;;;;5.30;4.80;;;;;;;;;;5032215;28;20221;-85
2023/10/20 08:52:17;;;;;;;6.90;4.40;;;;;;;;;;5036345;28;20314;-86
2023/10/20 08:54:49;;;;;;;7.53;5.93;;;;;;;;;;5038905;28;20221;-86
2023/10/20 08:57:27;;;;;;;11.57;6.40;;;;;;;;;;5035339;28;20224;-85
2023/10/20 09:00:00;;;;;;;10.50;6.07;;;;;;;;;;5012866;28;20230;-87
2023/10/20 09:02:38;;;;;;;5.55;5.00;;;;;;;;;;5038520;28;20220;-86
2023/10/20 09:05:06;;;;;;;10.48;4.97;;;;;;;;;;5038434;28;20720;-85
2023/10/20 09:07:35;;;;;;;8.43;5.57;;;;;;;;;;5037754;28;20227;-86
2023/10/20 09:10:05;;;;;;;6.90;5.25;;;;;;;;;;5038665;28;20251;-85
2023/10/20 09:12:33;;;;;;;8.95;5.78;;;;;;;;;;5036507;28;20232;-86
2023/10/20 09:15:01;;;;;;;8.98;5.38;;;;;;;;;;5037571;28;20224;-85
2023/10/20 09:17:33;;;;;;;8.60;5.68;;;;;;;;;;5038017;28;20426;-87
2023/10/20 09:20:11;;;;;;;7.40;4.95;;;;;;;;;;5042294;28;20224;-86
2023/10/20 09:22:46;;;;;;;7.57;5.70;;;;;;;;;;5036537;28;20850;-87
2023/10/20 09:25:21;;;;;;;7.50;5.88;;;;;;;;;;5037816;28;20629;-86
2023/10/20 09:27:51;;;;;;;8.63;5.88;;;;;;;;;;5037063;28;20306;-86
2023/10/20 09:30:24;;;;;;;8.88;5.55;;;;;;;;;;5038733;28;20228;-84
2023/10/20 09:32:54;;;;;;;5.45;4.75;;;;;;;;;;5039901;28;20299;-85
2023/10/20 09:35:26;;;;;;;6.75;4.72;;;;;;;;;;5038995;28;20768;-86
2023/10/20 09:38:04;;;;;;;9.18;5.20;;;;;;;;;;5038214;28;20669;-86
2023/10/20 09:40:35;;;;;;;14.60;5.45;;;;;;;;;;5038358;28;20231;-87
2023/10/20 09:43:11;;;;;;;6.78;5.05;;;;;;;;;;5037730;28;20315;-86
2023/10/20 09:45:46;;;;;;;5.07;4.57;;;;;;;;;;5038702;28;20228;-86
2023/10/20 09:48:20;;;;;;;5.88;5.38;;;;;;;;;;5031011;28;20227;-87
2023/10/20 09:50:51;;;;;;;7.97;5.28;;;;;;;;;;5036570;28;20281;-87
2023/10/20 09:53:21;;;;;;;14.63;5.22;;;;;;;;;;5033465;28;20224;-86
2023/10/20 09:55:51;;;;;;;6.93;5.15;;;;;;;;;;5035033;28;20307;-86
2023/10/20 09:58:33;;;;;;;5.47;4.93;;;;;;;;;;5032079;28;20727;-86
2023/10/20 10:01:03;;;;;;;8.50;4.88;;;;;;;;;;5034544;28;20224;-87
2023/10/20 10:03:37;;;;;;;6.95;4.90;;;;;;;;;;5034222;28;20251;-86
2023/10/20 10:06:10;;;;;;;7.47;5.10;;;;;;;;;;5032400;28;20247;-85
2023/10/20 10:08:40;;;;;;;6.22;5.47;;;;;;;;;;5029160;28;20230;-86
2023/10/20 10:11:28;;;;;;;6.40;4.75;;;;;;;;;;5035036;28;20631;-87
2023/10/20 10:13:58;;;;;;;5.57;4.32;;;;;;;;;;5024941;28;20713;-87
2023/10/20 10:16:26;;;;;;;5.68;4.90;;;;;;;;;;5034498;28;20244;-86
2023/10/20 10:18:57;;;;;;;8.65;5.03;;;;;;;;;;5035171;28;20228;-85
2023/10/20 10:21:35;;;;;;;5.32;4.82;;;;;;;;;;5054233;28;20208;-85
2023/10/20 10:24:23;;;;;;;7.30;4.05;;;;;;;;;;5053340;28;20291;-88
2023/10/20 10:26:58;;;;;;;5.85;3.85;;;;;;;;;;5045258;28;20299;-85
2023/10/20 10:29:46;;;;;;;10.85;4.07;;;;;;;;;;5032297;28;20254;-86
2023/10/20 10:32:14;;;;;;;3.47;3.25;;;;;;;;;;5038007;28;20216;-84
2023/10/20 10:34:43;;;;;;;6.90;3.75;;;;;;;;;;5037033;28;20227;-86
2023/10/20 10:37:13;;;;;;;9.18;4.32;;;;;;;;;;5037151;28;20314;-88
2023/10/20 10:39:48;;;;;;;7.55;3.30;;;;;;;;;;5042002;28;20232;-88
2023/10/20 10:42:22;;;;;;;4.57;3.40;;;;;;;;;;5040201;28;20234;-85
2023/10/20 10:44:51;;;;;;;3.78;3.47;;;;;;;;;;5035048;28;20243;-87
2023/10/20 10:47:23;;;;;;;5.50;3.60;;;;;;;;;;5044557;28;20239;-87
2023/10/20 10:49:58;;;;;;;8.88;4.07;;;;;;;;;;5043585;28;20242;-88
2023/10/20 10:52:40;;;;;;;6.60;3.25;;;;;;;;;;5045538;28;20220;-88
2023/10/20 10:55:11;;;;;;;2.58;2.22;;;;;;;;;;5044423;28;20220;-86
2023/10/20 10:57:46;;;;;;;3.97;2.88;;;;;;;;;;5043371;28;20232;-87
2023/10/20 11:00:17;;;;;;;3.05;2.80;;;;;;;;;;5041565;28;20219;-87
2023/10/20 11:02:51;;;;;;;3.67;3.35;;;;;;;;;;5039887;28;20753;-86
2023/10/20 11:05:23;;;;;;;8.93;2.88;;;;;;;;;;5038227;28;20742;-88
2023/10/20 11:08:02;;;;;;;4.38;3.63;;;;;;;;;;5036510;28;20238;-88
2023/10/20 11:10:30;;;;;;;3.67;3.38;;;;;;;;;;5033344;28;20606;-86
2023/10/20 11:12:59;;;;;;;10.88;3.25;;;;;;;;;;5016621;28;20248;-88
2023/10/20 11:15:30;;;;;;;11.80;3.25;;;;;;;;;;5013786;28;20240;-86
2023/10/20 11:17:59;;;;;;;3.45;3.13;;;;;;;;;;5017312;28;20733;-85
2023/10/20 11:20:36;;;;;;;4.28;2.60;;;;;;;;;;5009449;28;20221;-87
2023/10/20 11:23:08;;;;;;;4.45;2.58;;;;;;;;;;5015971;28;20228;-87
2023/10/20 11:25:40;;;;;;;3.13;2.85;;;;;;;;;;5014960;28;20236;-86
2023/10/20 11:28:10;;;;;;;5.03;2.70;;;;;;;;;;5022187;28;20251;-86
2023/10/20 11:30:41;;;;;;;4.30;2.38;;;;;;;;;;5028228;28;20234;-87
2023/10/20 11:33:13;;;;;;;3.28;2.92;;;;;;;;;;5031701;28;20251;-88
2023/10/20 11:35:42;;;;;;;3.00;2.78;;;;;;;;;;5028098;28;20221;-87
2023/10/20 11:38:21;;;;;;;3.45;2.53;;;;;;;;;;5033213;28;20217;-87
2023/10/20 11:40:49;;;;;;;4.50;2.45;;;;;;;;;;5037179;28;20228;-87
2023/10/20 11:43:24;;;;;;;6.97;3.08;;;;;;;;;;5055181;28;20200;-87
2023/10/20 11:45:55;;;;;;;4.20;2.38;;;;;;;;;;5053635;28;20275;-87
2023/10/20 11:48:23;;;;;;;4.28;2.40;;;;;;;;;;5055168;28;20266;-88
2023/10/20 11:51:00;;;;;;;6.05;2.22;;;;;;;;;;5053869;28;20227;-88
2023/10/20 11:53:29;;;;;;;6.70;2.85;;;;;;;;;;5054891;28;20227;-87
2023/10/20 11:55:59;;;;;;;3.13;2.33;;;;;;;;;;5054477;28;20252;-88
2023/10/20 11:58:33;;;;;;;4.38;3.15;;;;;;;;;;5052470;28;20452;-86
2023/10/20 12:01:06;;;;;;;5.25;2.85;;;;;;;;;;5037999;28;20228;-88
2023/10/20 12:03:34;;;;;;;4.70;3.17;;;;;;;;;;5039023;28;20239;-85
2023/10/20 12:06:02;;;;;;;4.60;2.63;;;;;;;;;;5029266;28;20216;-87
2023/10/20 12:08:32;;;;;;;3.90;2.40;;;;;;;;;;5036658;28;20228;-87
2023/10/20 12:11:01;;;;;;;9.65;2.88;;;;;;;;;;5033161;28;20689;-87
2023/10/20 12:13:28;;;;;;;2.63;2.38;;;;;;;;;;5034934;28;20227;-85
2023/10/20 12:15:58;;;;;;;4.70;2.58;;;;;;;;;;5034561;28;20256;-86
2023/10/20 12:18:26;;;;;;;5.82;2.30;;;;;;;;;;5024447;28;20238;-84
2023/10/20 12:20:55;;;;;;;4.45;2.47;;;;;;;;;;5031394;28;20220;-84
2023/10/20 12:23:23;;;;;;;4.22;2.45;;;;;;;;;;5032902;28;20868;-84
2023/10/20 12:25:53;;;;;;;7.32;2.20;;;;;;;;;;5033537;28;20258;-84
2023/10/20 12:28:24;;;;;;;6.65;2.55;;;;;;;;;;5035904;28;20323;-84
2023/10/20 12:30:53;;;;;;;6.88;2.13;;;;;;;;;;5035216;28;20277;-84
2023/10/20 12:33:22;;;;;;;11.88;2.45;;;;;;;;;;5031792;28;20238;-84
2023/10/20 12:35:53;;;;;;;5.78;2.17;;;;;;;;;;5035268;28;20200;-84
2023/10/20 12:38:23;;;;;;;4.50;1.88;;;;;;;;;;5034804;28;20911;-84
2023/10/20 12:40:53;;;;;;;3.53;1.65;;;;;;;;;;5034961;28;20278;-85
2023/10/20 12:43:21;;;;;;;5.57;1.85;;;;;;;;;;5034992;28;20258;-83
2023/10/20 12:45:49;;;;;;;3.90;2.13;;;;;;;;;;5036393;28;20208;-86
2023/10/20 12:48:17;;;;;;;15.55;2.17;;;;;;;;;;5035216;28;20314;-84
2023/10/20 12:50:49;;;;;;;3.42;1.42;;;;;;;;;;5035847;28;20294;-83
2023/10/20 12:53:21;;;;;;;7.25;1.70;;;;;;;;;;5035059;28;20215;-83
2023/10/20 12:55:48;;;;;;;4.28;1.67;;;;;;;;;;5037606;28;20657;-84
2023/10/20 12:58:18;;;;;;;3.80;1.55;;;;;;;;;;5046220;28;20466;-83
2023/10/20 13:00:48;;;;;;;6.10;2.25;;;;;;;;;;5051329;28;20259;-84
2023/10/20 13:03:16;;;;;;;4.38;1.50;;;;;;;;;;5043605;28;20240;-84
2023/10/20 13:05:53;;;;;;;6.55;1.90;;;;;;;;;;5040835;28;20552;-83
2023/10/20 13:08:21;;;;;;;4.35;1.60;;;;;;;;;;5037909;28;20277;-87
2023/10/20 13:10:50;;;;;;;7.20;2.67;;;;;;;;;;5039761;28;20204;-86
2023/10/20 13:13:24;;;;;;;2.00;1.90;;;;;;;;;;5039100;28;20235;-87
2023/10/20 13:15:55;;;;;;;3.22;1.70;;;;;;;;;;5039601;28;20240;-85
2023/10/20 13:18:27;;;;;;;5.80;1.52;;;;;;;;;;5036465;28;20529;-86
2023/10/20 13:20:58;;;;;;;3.58;1.73;;;;;;;;;;5034420;28;20236;-86
2023/10/20 13:23:26;;;;;;;7.20;1.70;;;;;;;;;;5035709;28;20193;-86
2023/10/20 13:26:04;;;;;;;8.65;1.55;;;;;;;;;;5037604;28;20572;-86
2023/10/20 13:28:32;;;;;;;3.17;1.30;;;;;;;;;;5044133;28;20235;-85
2023/10/20 13:31:06;;;;;;;1.63;1.30;;;;;;;;;;5042380;28;20196;-86
2023/10/20 13:33:34;;;;;;;1.13;0.98;;;;;;;;;;5054239;28;20191;-84
2023/10/20 13:36:07;;;;;;;2.78;1.33;;;;;;;;;;5047719;28;20204;-87
2023/10/20 13:38:37;;;;;;;3.97;1.67;;;;;;;;;;5036748;28;20207;-86
2023/10/20 13:41:08;;;;;;;6.22;1.42;;;;;;;;;;5044993;28;20208;-85
2023/10/20 13:43:45;;;;;;;5.53;1.88;;;;;;;;;;5047632;28;20280;-85
2023/10/20 13:46:14;;;;;;;1.75;1.65;;;;;;;;;;5045954;28;20252;-86
2023/10/20 13:48:44;;;;;;;3.47;1.00;;;;;;;;;;5045376;28;20236;-86
2023/10/20 13:51:12;;;;;;;1.15;1.15;;;;;;;;;;5039543;28;20291;-84
2023/10/20 13:53:40;;;;;;;9.40;1.65;;;;;;;;;;5039663;28;20200;-85
2023/10/20 13:56:08;;;;;;;5.75;1.60;;;;;;;;;;5035608;28;20203;-85
2023/10/20 13:58:38;;;;;;;3.25;1.50;;;;;;;;;;5035048;28;20230;-86
2023/10/20 14:01:10;;;;;;;9.05;1.65;;;;;;;;;;5039189;28;20270;-84
2023/10/20 14:03:39;;;;;;;4.57;1.27;;;;;;;;;;5040103;28;20231;-84
2023/10/20 14:06:07;;;;;;;1.17;1.08;;;;;;;;;;5039223;28;20217;-85
2023/10/20 14:08:40;;;;;;;1.77;1.20;;;;;;;;;;5039274;28;20331;-87
2023/10/20 14:11:10;;;;;;;1.77;1.25;;;;;;;;;;5040023;28;20232;-85
2023/10/20 14:13:40;;;;;;;4.82;1.10;;;;;;;;;;5042565;28;20257;-86
2023/10/20 14:16:08;;;;;;;2.80;1.40;;;;;;;;;;5039703;28;20296;-85
2023/10/20 14:18:39;;;;;;;4.38;1.45;;;;;;;;;;5038035;28;20211;-85
2023/10/20 14:21:08;;;;;;;7.00;1.40;;;;;;;;;;5038353;28;20203;-86
2023/10/20 14:23:36;;;;;;;4.45;1.33;;;;;;;;;;5038407;28;20220;-84
2023/10/20 14:26:03;;;;;;;5.03;0.95;;;;;;;;;;5038875;28;20212;-85
2023/10/20 14:28:37;;;;;;;2.85;1.20;;;;;;;;;;5038945;28;20239;-85
2023/10/20 14:31:20;;;;;;;11.80;1.65;;;;;;;;;;5041020;28;20215;-85
2023/10/20 14:33:49;;;;;;;6.65;1.02;;;;;;;;;;5040437;28;20208;-84
2023/10/20 14:36:24;;;;;;;2.65;1.10;;;;;;;;;;5041478;28;20192;-86
2023/10/20 14:38:54;;;;;;;3.33;1.40;;;;;;;;;;5037423;28;20204;-82
2023/10/20 14:41:23;;;;;;;7.15;1.55;;;;;;;;;;5036935;28;20638;-84
2023/10/20 14:43:52;;;;;;;2.70;1.13;;;;;;;;;;5037486;28;20211;-85
2023/10/20 14:46:21;;;;;;;3.53;1.42;;;;;;;;;;5038069;28;20230;-86
2023/10/20 14:48:52;;;;;;;7.78;1.83;;;;;;;;;;5038450;28;20283;-86
2023/10/20 14:51:20;;;;;;;10.50;1.20;;;;;;;;;;5039346;28;20199;-86
2023/10/20 14:53:50;;;;;;;1.15;1.05;;;;;;;;;;5039331;28;20227;-84
2023/10/20 14:56:20;;;;;;;6.53;1.13;;;;;;;;;;5046581;28;20226;-84
2023/10/20 14:58:49;;;;;;;5.07;1.52;;;;;;;;;;5036405;28;20204;-85
2023/10/20 15:01:17;;;;;;;2.97;0.95;;;;;;;;;;5035926;28;20269;-84
2023/10/20 15:03:46;;;;;;;1.88;1.13;;;;;;;;;;5035717;28;20196;-84
2023/10/20 15:06:15;;;;;;;4.32;1.40;;;;;;;;;;5034894;28;20227;-86
2023/10/20 15:08:46;;;;;;;5.75;1.80;;;;;;;;;;5035551;28;20246;-86
2023/10/20 15:11:17;;;;;;;2.65;1.13;;;;;;;;;;5035773;28;20658;-85
2023/10/20 15:13:45;;;;;;;1.95;1.70;;;;;;;;;;5034935;28;20200;-84
2023/10/20 15:16:16;;;;;;;7.68;1.73;;;;;;;;;;5037318;28;20263;-85
2023/10/20 15:18:45;;;;;;;1.40;1.00;;;;;;;;;;5037570;28;20224;-85
2023/10/20 15:21:14;;;;;;;4.03;1.55;;;;;;;;;;5039725;28;20308;-85
2023/10/20 15:23:43;;;;;;;2.40;1.63;;;;;;;;;;5036903;28;20419;-86